sensor_id;sensor_type;location;lat;lon;timestamp;P1;durP1;ratioP1;P2;durP2;ratioP2
7571;SDS011;3827;49.928;8.548;2022-09-27T00:00:12;2.63;;;1.40;;
7571;SDS011;3827;49.928;8.548;2022-09-27T00:02:40;1.50;;;1.40;;
7571;SDS011;3827;49.928;8.548;2022-09-27T00:05:07;2.13;;;1.38;;
7571;SDS011;3827;49.928;8.548;2022-09-27T00:07:35;1.20;;;1.10;;
7571;SDS011;3827;49.928;8.548;2022-09-27T00:10:02;0.90;;;0.90;;
7571;SDS011;3827;49.928;8.548;2022-09-27T00:12:29;1.03;;;1.00;;
7571;SDS011;3827;49.928;8.548;2022-09-27T00:14:56;1.20;;;1.10;;
7571;SDS011;3827;49.928;8.548;2022-09-27T00:17:23;1.13;;;1.00;;
7571;SDS011;3827;49.928;8.548;2022-09-27T00:19:51;2.27;;;1.00;;
7571;SDS011;3827;49.928;8.548;2022-09-27T00:22:20;2.70;;;1.20;;
7571;SDS011;3827;49.928;8.548;2022-09-27T00:24:48;1.08;;;1.05;;
7571;SDS011;3827;49.928;8.548;2022-09-27T00:27:15;1.50;;;1.00;;
7571;SDS011;3827;49.928;8.548;2022-09-27T00:29:43;1.60;;;1.00;;
7571;SDS011;3827;49.928;8.548;2022-09-27T00:32:10;1.75;;;1.20;;
7571;SDS011;3827;49.928;8.548;2022-09-27T00:34:37;1.03;;;1.03;;
7571;SDS011;3827;49.928;8.548;2022-09-27T00:37:05;1.20;;;1.20;;
7571;SDS011;3827;49.928;8.548;2022-09-27T00:39:33;1.30;;;1.20;;
7571;SDS011;3827;49.928;8.548;2022-09-27T00:42:01;1.23;;;1.13;;
7571;SDS011;3827;49.928;8.548;2022-09-27T00:47:32;2.08;;;1.40;;
7571;SDS011;3827;49.928;8.548;2022-09-27T00:50:05;1.05;;;1.02;;
7571;SDS011;3827;49.928;8.548;2022-09-27T00:52:40;1.00;;;1.00;;
7571;SDS011;3827;49.928;8.548;2022-09-27T00:55:12;1.10;;;1.00;;
7571;SDS011;3827;49.928;8.548;2022-09-27T00:57:44;1.00;;;1.00;;
7571;SDS011;3827;49.928;8.548;2022-09-27T01:00:13;1.65;;;1.00;;
7571;SDS011;3827;49.928;8.548;2022-09-27T01:02:43;1.20;;;1.10;;
7571;SDS011;3827;49.928;8.548;2022-09-27T01:05:14;1.40;;;1.30;;
7571;SDS011;3827;49.928;8.548;2022-09-27T01:07:44;1.98;;;1.65;;
7571;SDS011;3827;49.928;8.548;2022-09-27T01:10:10;1.50;;;1.40;;
7571;SDS011;3827;49.928;8.548;2022-09-27T01:12:41;1.60;;;1.50;;
7571;SDS011;3827;49.928;8.548;2022-09-27T01:15:21;1.60;;;1.50;;
7571;SDS011;3827;49.928;8.548;2022-09-27T01:17:55;1.92;;;1.77;;
7571;SDS011;3827;49.928;8.548;2022-09-27T01:23:46;2.03;;;1.92;;
7571;SDS011;3827;49.928;8.548;2022-09-27T01:29:46;1.90;;;1.70;;
7571;SDS011;3827;49.928;8.548;2022-09-27T01:32:25;1.70;;;1.60;;
7571;SDS011;3827;49.928;8.548;2022-09-27T01:34:58;1.73;;;1.63;;
7571;SDS011;3827;49.928;8.548;2022-09-27T01:37:32;1.40;;;1.40;;
7571;SDS011;3827;49.928;8.548;2022-09-27T01:40:05;1.67;;;1.48;;
7571;SDS011;3827;49.928;8.548;2022-09-27T01:42:38;1.63;;;1.20;;
7571;SDS011;3827;49.928;8.548;2022-09-27T01:45:13;1.45;;;1.30;;
7571;SDS011;3827;49.928;8.548;2022-09-27T01:47:48;2.75;;;1.40;;
7571;SDS011;3827;49.928;8.548;2022-09-27T01:50:18;1.88;;;1.40;;
7571;SDS011;3827;49.928;8.548;2022-09-27T01:52:50;1.40;;;1.30;;
7571;SDS011;3827;49.928;8.548;2022-09-27T01:55:21;1.30;;;1.20;;
7571;SDS011;3827;49.928;8.548;2022-09-27T01:57:53;1.40;;;1.13;;
7571;SDS011;3827;49.928;8.548;2022-09-27T02:00:23;2.27;;;1.40;;
7571;SDS011;3827;49.928;8.548;2022-09-27T02:02:54;2.50;;;1.42;;
7571;SDS011;3827;49.928;8.548;2022-09-27T02:05:25;1.13;;;1.03;;
7571;SDS011;3827;49.928;8.548;2022-09-27T02:07:57;2.72;;;1.20;;
7571;SDS011;3827;49.928;8.548;2022-09-27T02:10:28;1.83;;;1.25;;
7571;SDS011;3827;49.928;8.548;2022-09-27T02:13:00;2.78;;;1.20;;
7571;SDS011;3827;49.928;8.548;2022-09-27T02:15:31;1.95;;;1.50;;
7571;SDS011;3827;49.928;8.548;2022-09-27T02:18:17;2.53;;;1.30;;
7571;SDS011;3827;49.928;8.548;2022-09-27T02:20:54;3.65;;;1.58;;
7571;SDS011;3827;49.928;8.548;2022-09-27T02:23:24;2.60;;;1.58;;
7571;SDS011;3827;49.928;8.548;2022-09-27T02:25:58;2.67;;;1.40;;
7571;SDS011;3827;49.928;8.548;2022-09-27T02:28:30;2.90;;;1.60;;
7571;SDS011;3827;49.928;8.548;2022-09-27T02:31:02;1.90;;;1.55;;
7571;SDS011;3827;49.928;8.548;2022-09-27T02:33:32;4.17;;;1.70;;
7571;SDS011;3827;49.928;8.548;2022-09-27T02:36:02;3.33;;;1.70;;
7571;SDS011;3827;49.928;8.548;2022-09-27T02:38:29;3.27;;;1.60;;
7571;SDS011;3827;49.928;8.548;2022-09-27T02:40:56;2.95;;;1.60;;
7571;SDS011;3827;49.928;8.548;2022-09-27T02:43:26;4.38;;;1.42;;
7571;SDS011;3827;49.928;8.548;2022-09-27T02:45:59;4.00;;;1.60;;
7571;SDS011;3827;49.928;8.548;2022-09-27T02:48:42;2.78;;;1.60;;
7571;SDS011;3827;49.928;8.548;2022-09-27T02:51:23;3.80;;;1.52;;
7571;SDS011;3827;49.928;8.548;2022-09-27T02:54:02;2.95;;;1.40;;
7571;SDS011;3827;49.928;8.548;2022-09-27T02:56:42;2.78;;;1.33;;
7571;SDS011;3827;49.928;8.548;2022-09-27T02:59:17;3.13;;;1.45;;
7571;SDS011;3827;49.928;8.548;2022-09-27T03:01:56;2.58;;;1.20;;
7571;SDS011;3827;49.928;8.548;2022-09-27T03:04:31;2.38;;;1.30;;
7571;SDS011;3827;49.928;8.548;2022-09-27T03:07:03;2.40;;;1.50;;
7571;SDS011;3827;49.928;8.548;2022-09-27T03:09:39;2.65;;;1.30;;
7571;SDS011;3827;49.928;8.548;2022-09-27T03:12:08;1.98;;;1.30;;
7571;SDS011;3827;49.928;8.548;2022-09-27T03:14:36;1.15;;;0.80;;
7571;SDS011;3827;49.928;8.548;2022-09-27T03:17:02;1.63;;;1.00;;
7571;SDS011;3827;49.928;8.548;2022-09-27T03:19:31;1.88;;;1.08;;
7571;SDS011;3827;49.928;8.548;2022-09-27T03:21:58;2.53;;;1.10;;
7571;SDS011;3827;49.928;8.548;2022-09-27T03:24:24;3.13;;;1.20;;
7571;SDS011;3827;49.928;8.548;2022-09-27T03:26:51;2.20;;;1.00;;
7571;SDS011;3827;49.928;8.548;2022-09-27T03:29:18;2.08;;;0.95;;
7571;SDS011;3827;49.928;8.548;2022-09-27T03:31:45;1.50;;;0.80;;
7571;SDS011;3827;49.928;8.548;2022-09-27T03:34:12;1.08;;;0.95;;
7571;SDS011;3827;49.928;8.548;2022-09-27T03:36:40;2.63;;;1.00;;
7571;SDS011;3827;49.928;8.548;2022-09-27T03:39:07;1.30;;;0.80;;
7571;SDS011;3827;49.928;8.548;2022-09-27T03:41:34;1.00;;;0.80;;
7571;SDS011;3827;49.928;8.548;2022-09-27T03:44:02;1.23;;;0.85;;
7571;SDS011;3827;49.928;8.548;2022-09-27T03:46:29;1.83;;;0.90;;
7571;SDS011;3827;49.928;8.548;2022-09-27T03:48:56;1.40;;;0.77;;
7571;SDS011;3827;49.928;8.548;2022-09-27T03:51:23;0.60;;;0.60;;
7571;SDS011;3827;49.928;8.548;2022-09-27T03:53:51;0.80;;;0.75;;
7571;SDS011;3827;49.928;8.548;2022-09-27T03:56:18;1.25;;;0.80;;
7571;SDS011;3827;49.928;8.548;2022-09-27T03:58:45;2.20;;;0.77;;
7571;SDS011;3827;49.928;8.548;2022-09-27T04:01:12;1.85;;;0.82;;
7571;SDS011;3827;49.928;8.548;2022-09-27T04:03:39;0.88;;;0.70;;
7571;SDS011;3827;49.928;8.548;2022-09-27T04:06:07;1.30;;;0.63;;
7571;SDS011;3827;49.928;8.548;2022-09-27T04:08:33;0.50;;;0.50;;
7571;SDS011;3827;49.928;8.548;2022-09-27T04:11:02;0.80;;;0.50;;
7571;SDS011;3827;49.928;8.548;2022-09-27T04:13:29;0.77;;;0.52;;
7571;SDS011;3827;49.928;8.548;2022-09-27T04:15:56;1.00;;;0.50;;
7571;SDS011;3827;49.928;8.548;2022-09-27T04:18:23;1.38;;;0.40;;
7571;SDS011;3827;49.928;8.548;2022-09-27T04:20:50;0.40;;;0.40;;
7571;SDS011;3827;49.928;8.548;2022-09-27T04:23:17;0.47;;;0.43;;
7571;SDS011;3827;49.928;8.548;2022-09-27T04:25:44;0.70;;;0.40;;
7571;SDS011;3827;49.928;8.548;2022-09-27T04:28:13;0.40;;;0.40;;
7571;SDS011;3827;49.928;8.548;2022-09-27T04:30:39;1.00;;;0.40;;
7571;SDS011;3827;49.928;8.548;2022-09-27T04:33:06;0.82;;;0.45;;
7571;SDS011;3827;49.928;8.548;2022-09-27T04:35:33;1.10;;;0.35;;
7571;SDS011;3827;49.928;8.548;2022-09-27T04:38:17;1.23;;;0.40;;
7571;SDS011;3827;49.928;8.548;2022-09-27T04:40:48;0.70;;;0.30;;
7571;SDS011;3827;49.928;8.548;2022-09-27T04:43:16;0.98;;;0.38;;
7571;SDS011;3827;49.928;8.548;2022-09-27T04:45:44;1.02;;;0.40;;
7571;SDS011;3827;49.928;8.548;2022-09-27T04:48:11;0.57;;;0.40;;
7571;SDS011;3827;49.928;8.548;2022-09-27T04:50:38;0.50;;;0.50;;
7571;SDS011;3827;49.928;8.548;2022-09-27T04:53:05;0.57;;;0.57;;
7571;SDS011;3827;49.928;8.548;2022-09-27T04:55:33;0.90;;;0.70;;
7571;SDS011;3827;49.928;8.548;2022-09-27T04:58:00;0.65;;;0.65;;
7571;SDS011;3827;49.928;8.548;2022-09-27T05:00:28;1.63;;;0.90;;
7571;SDS011;3827;49.928;8.548;2022-09-27T05:02:56;0.75;;;0.40;;
7571;SDS011;3827;49.928;8.548;2022-09-27T05:05:22;0.75;;;0.60;;
7571;SDS011;3827;49.928;8.548;2022-09-27T05:07:49;0.80;;;0.50;;
7571;SDS011;3827;49.928;8.548;2022-09-27T05:10:16;1.33;;;0.70;;
7571;SDS011;3827;49.928;8.548;2022-09-27T05:12:43;1.08;;;0.60;;
7571;SDS011;3827;49.928;8.548;2022-09-27T05:15:10;1.30;;;0.70;;
7571;SDS011;3827;49.928;8.548;2022-09-27T05:17:38;1.60;;;0.70;;
7571;SDS011;3827;49.928;8.548;2022-09-27T05:20:05;0.90;;;0.60;;
7571;SDS011;3827;49.928;8.548;2022-09-27T05:22:33;0.90;;;0.90;;
7571;SDS011;3827;49.928;8.548;2022-09-27T05:25:02;0.70;;;0.70;;
7571;SDS011;3827;49.928;8.548;2022-09-27T05:27:29;1.35;;;0.70;;
7571;SDS011;3827;49.928;8.548;2022-09-27T05:29:56;0.70;;;0.70;;
7571;SDS011;3827;49.928;8.548;2022-09-27T05:32:25;0.70;;;0.70;;
7571;SDS011;3827;49.928;8.548;2022-09-27T05:34:54;1.10;;;0.80;;
7571;SDS011;3827;49.928;8.548;2022-09-27T05:37:21;1.08;;;0.68;;
7571;SDS011;3827;49.928;8.548;2022-09-27T05:39:48;0.80;;;0.70;;
7571;SDS011;3827;49.928;8.548;2022-09-27T05:42:15;0.88;;;0.63;;
7571;SDS011;3827;49.928;8.548;2022-09-27T05:44:43;0.70;;;0.60;;
7571;SDS011;3827;49.928;8.548;2022-09-27T05:47:11;0.70;;;0.60;;
7571;SDS011;3827;49.928;8.548;2022-09-27T05:49:38;0.65;;;0.50;;
7571;SDS011;3827;49.928;8.548;2022-09-27T05:52:06;1.20;;;0.40;;
7571;SDS011;3827;49.928;8.548;2022-09-27T05:54:33;0.50;;;0.50;;
7571;SDS011;3827;49.928;8.548;2022-09-27T05:57:00;0.90;;;0.52;;
7571;SDS011;3827;49.928;8.548;2022-09-27T05:59:27;0.55;;;0.50;;
7571;SDS011;3827;49.928;8.548;2022-09-27T06:01:54;0.70;;;0.60;;
7571;SDS011;3827;49.928;8.548;2022-09-27T06:04:21;0.77;;;0.68;;
7571;SDS011;3827;49.928;8.548;2022-09-27T06:06:48;2.65;;;2.38;;
7571;SDS011;3827;49.928;8.548;2022-09-27T06:09:16;2.58;;;1.85;;
7571;SDS011;3827;49.928;8.548;2022-09-27T06:11:43;1.40;;;1.00;;
7571;SDS011;3827;49.928;8.548;2022-09-27T06:14:10;0.70;;;0.70;;
7571;SDS011;3827;49.928;8.548;2022-09-27T06:16:38;1.95;;;1.17;;
7571;SDS011;3827;49.928;8.548;2022-09-27T06:19:04;0.98;;;0.93;;
7571;SDS011;3827;49.928;8.548;2022-09-27T06:21:31;0.98;;;0.98;;
7571;SDS011;3827;49.928;8.548;2022-09-27T06:23:58;1.67;;;1.58;;
7571;SDS011;3827;49.928;8.548;2022-09-27T06:26:27;1.90;;;1.40;;
7571;SDS011;3827;49.928;8.548;2022-09-27T06:28:54;1.67;;;1.55;;
7571;SDS011;3827;49.928;8.548;2022-09-27T06:31:21;1.27;;;0.93;;
7571;SDS011;3827;49.928;8.548;2022-09-27T06:33:48;0.60;;;0.60;;
7571;SDS011;3827;49.928;8.548;2022-09-27T06:36:15;1.40;;;0.80;;
7571;SDS011;3827;49.928;8.548;2022-09-27T06:38:43;1.10;;;0.60;;
7571;SDS011;3827;49.928;8.548;2022-09-27T06:41:12;1.05;;;0.40;;
7571;SDS011;3827;49.928;8.548;2022-09-27T06:43:40;0.73;;;0.40;;
7571;SDS011;3827;49.928;8.548;2022-09-27T06:46:07;1.05;;;0.50;;
7571;SDS011;3827;49.928;8.548;2022-09-27T06:48:34;0.70;;;0.50;;
7571;SDS011;3827;49.928;8.548;2022-09-27T06:51:03;0.75;;;0.70;;
7571;SDS011;3827;49.928;8.548;2022-09-27T06:53:30;0.63;;;0.30;;
7571;SDS011;3827;49.928;8.548;2022-09-27T06:55:57;0.47;;;0.35;;
7571;SDS011;3827;49.928;8.548;2022-09-27T06:58:26;0.45;;;0.40;;
7571;SDS011;3827;49.928;8.548;2022-09-27T07:01:12;1.10;;;0.50;;
7571;SDS011;3827;49.928;8.548;2022-09-27T07:03:40;1.50;;;0.50;;
7571;SDS011;3827;49.928;8.548;2022-09-27T07:06:11;0.52;;;0.40;;
7571;SDS011;3827;49.928;8.548;2022-09-27T07:08:42;0.52;;;0.40;;
7571;SDS011;3827;49.928;8.548;2022-09-27T07:11:10;0.67;;;0.40;;
7571;SDS011;3827;49.928;8.548;2022-09-27T07:13:37;0.88;;;0.70;;
7571;SDS011;3827;49.928;8.548;2022-09-27T07:16:07;0.80;;;0.80;;
7571;SDS011;3827;49.928;8.548;2022-09-27T07:18:38;2.05;;;1.00;;
7571;SDS011;3827;49.928;8.548;2022-09-27T07:21:05;1.80;;;1.50;;
7571;SDS011;3827;49.928;8.548;2022-09-27T07:23:33;2.22;;;2.13;;
7571;SDS011;3827;49.928;8.548;2022-09-27T07:26:00;2.00;;;1.80;;
7571;SDS011;3827;49.928;8.548;2022-09-27T07:28:31;1.70;;;1.40;;
7571;SDS011;3827;49.928;8.548;2022-09-27T07:30:58;1.00;;;0.50;;
7571;SDS011;3827;49.928;8.548;2022-09-27T07:33:28;0.60;;;0.60;;
7571;SDS011;3827;49.928;8.548;2022-09-27T07:35:57;1.17;;;0.80;;
7571;SDS011;3827;49.928;8.548;2022-09-27T07:38:27;0.50;;;0.40;;
7571;SDS011;3827;49.928;8.548;2022-09-27T07:40:54;0.80;;;0.80;;
7571;SDS011;3827;49.928;8.548;2022-09-27T07:43:21;0.60;;;0.60;;
7571;SDS011;3827;49.928;8.548;2022-09-27T07:45:48;1.10;;;0.93;;
7571;SDS011;3827;49.928;8.548;2022-09-27T07:48:14;1.00;;;0.63;;
7571;SDS011;3827;49.928;8.548;2022-09-27T07:50:42;1.10;;;0.60;;
7571;SDS011;3827;49.928;8.548;2022-09-27T07:53:10;1.30;;;1.00;;
7571;SDS011;3827;49.928;8.548;2022-09-27T07:55:38;1.30;;;0.80;;
7571;SDS011;3827;49.928;8.548;2022-09-27T07:58:06;1.55;;;1.05;;
7571;SDS011;3827;49.928;8.548;2022-09-27T08:00:34;1.23;;;0.60;;
7571;SDS011;3827;49.928;8.548;2022-09-27T08:03:03;0.82;;;0.82;;
7571;SDS011;3827;49.928;8.548;2022-09-27T08:05:31;1.07;;;0.90;;
7571;SDS011;3827;49.928;8.548;2022-09-27T08:07:59;1.15;;;1.05;;
7571;SDS011;3827;49.928;8.548;2022-09-27T08:10:28;0.93;;;0.90;;
7571;SDS011;3827;49.928;8.548;2022-09-27T08:12:55;1.30;;;0.98;;
7571;SDS011;3827;49.928;8.548;2022-09-27T08:15:23;0.70;;;0.70;;
7571;SDS011;3827;49.928;8.548;2022-09-27T08:17:52;1.52;;;1.40;;
7571;SDS011;3827;49.928;8.548;2022-09-27T08:20:19;1.42;;;1.33;;
7571;SDS011;3827;49.928;8.548;2022-09-27T08:22:46;0.95;;;0.93;;
7571;SDS011;3827;49.928;8.548;2022-09-27T08:25:14;1.55;;;0.70;;
7571;SDS011;3827;49.928;8.548;2022-09-27T08:27:42;1.83;;;1.48;;
7571;SDS011;3827;49.928;8.548;2022-09-27T08:30:09;1.75;;;0.93;;
7571;SDS011;3827;49.928;8.548;2022-09-27T08:32:36;2.58;;;1.73;;
7571;SDS011;3827;49.928;8.548;2022-09-27T08:35:04;2.17;;;1.77;;
7571;SDS011;3827;49.928;8.548;2022-09-27T08:37:32;2.07;;;1.20;;
7571;SDS011;3827;49.928;8.548;2022-09-27T08:39:59;0.73;;;0.40;;
7571;SDS011;3827;49.928;8.548;2022-09-27T08:42:30;2.38;;;1.27;;
7571;SDS011;3827;49.928;8.548;2022-09-27T08:45:08;0.90;;;0.70;;
7571;SDS011;3827;49.928;8.548;2022-09-27T08:47:39;1.90;;;1.20;;
7571;SDS011;3827;49.928;8.548;2022-09-27T08:50:16;1.85;;;1.40;;
7571;SDS011;3827;49.928;8.548;2022-09-27T08:52:51;2.88;;;1.60;;
7571;SDS011;3827;49.928;8.548;2022-09-27T08:55:24;1.50;;;0.60;;
7571;SDS011;3827;49.928;8.548;2022-09-27T08:57:56;3.38;;;1.90;;
7571;SDS011;3827;49.928;8.548;2022-09-27T09:00:26;1.85;;;1.45;;
7571;SDS011;3827;49.928;8.548;2022-09-27T09:02:55;1.00;;;0.80;;
7571;SDS011;3827;49.928;8.548;2022-09-27T09:05:24;2.67;;;1.40;;
7571;SDS011;3827;49.928;8.548;2022-09-27T09:08:04;2.55;;;1.50;;
7571;SDS011;3827;49.928;8.548;2022-09-27T09:10:47;2.20;;;1.25;;
7571;SDS011;3827;49.928;8.548;2022-09-27T09:13:39;1.75;;;1.27;;
7571;SDS011;3827;49.928;8.548;2022-09-27T09:16:24;4.72;;;2.30;;
7571;SDS011;3827;49.928;8.548;2022-09-27T09:19:07;0.80;;;0.50;;
7571;SDS011;3827;49.928;8.548;2022-09-27T09:21:51;1.85;;;0.80;;
7571;SDS011;3827;49.928;8.548;2022-09-27T09:24:25;1.50;;;0.80;;
7571;SDS011;3827;49.928;8.548;2022-09-27T09:27:06;0.50;;;0.47;;
7571;SDS011;3827;49.928;8.548;2022-09-27T09:29:55;1.58;;;0.88;;
7571;SDS011;3827;49.928;8.548;2022-09-27T09:32:45;1.00;;;0.70;;
7571;SDS011;3827;49.928;8.548;2022-09-27T09:35:25;0.90;;;0.50;;
7571;SDS011;3827;49.928;8.548;2022-09-27T09:37:54;0.57;;;0.40;;
7571;SDS011;3827;49.928;8.548;2022-09-27T09:40:25;1.48;;;0.60;;
7571;SDS011;3827;49.928;8.548;2022-09-27T09:42:58;0.80;;;0.50;;
7571;SDS011;3827;49.928;8.548;2022-09-27T09:45:28;0.88;;;0.55;;
7571;SDS011;3827;49.928;8.548;2022-09-27T09:48:01;0.30;;;0.30;;
7571;SDS011;3827;49.928;8.548;2022-09-27T09:50:33;0.40;;;0.40;;
7571;SDS011;3827;49.928;8.548;2022-09-27T09:53:09;1.10;;;0.57;;
7571;SDS011;3827;49.928;8.548;2022-09-27T09:55:41;0.60;;;0.40;;
7571;SDS011;3827;49.928;8.548;2022-09-27T09:58:18;0.45;;;0.40;;
7571;SDS011;3827;49.928;8.548;2022-09-27T10:00:49;1.08;;;0.40;;
7571;SDS011;3827;49.928;8.548;2022-09-27T10:03:20;0.60;;;0.57;;
7571;SDS011;3827;49.928;8.548;2022-09-27T10:05:48;0.90;;;0.75;;
7571;SDS011;3827;49.928;8.548;2022-09-27T10:08:16;0.80;;;0.60;;
7571;SDS011;3827;49.928;8.548;2022-09-27T10:10:45;0.50;;;0.50;;
7571;SDS011;3827;49.928;8.548;2022-09-27T10:13:14;0.67;;;0.67;;
7571;SDS011;3827;49.928;8.548;2022-09-27T10:15:43;0.88;;;0.80;;
7571;SDS011;3827;49.928;8.548;2022-09-27T10:18:20;0.77;;;0.68;;
7571;SDS011;3827;49.928;8.548;2022-09-27T10:20:48;1.25;;;1.15;;
7571;SDS011;3827;49.928;8.548;2022-09-27T10:23:18;0.90;;;0.40;;
7571;SDS011;3827;49.928;8.548;2022-09-27T10:25:50;0.50;;;0.40;;
7571;SDS011;3827;49.928;8.548;2022-09-27T10:28:25;0.60;;;0.50;;
7571;SDS011;3827;49.928;8.548;2022-09-27T10:31:03;0.43;;;0.40;;
7571;SDS011;3827;49.928;8.548;2022-09-27T10:33:33;0.90;;;0.40;;
7571;SDS011;3827;49.928;8.548;2022-09-27T10:36:03;0.40;;;0.40;;
7571;SDS011;3827;49.928;8.548;2022-09-27T10:38:35;0.45;;;0.40;;
7571;SDS011;3827;49.928;8.548;2022-09-27T10:41:15;0.40;;;0.40;;
7571;SDS011;3827;49.928;8.548;2022-09-27T10:43:48;0.50;;;0.30;;
7571;SDS011;3827;49.928;8.548;2022-09-27T10:46:18;0.40;;;0.40;;
7571;SDS011;3827;49.928;8.548;2022-09-27T10:51:37;0.30;;;0.30;;
7571;SDS011;3827;49.928;8.548;2022-09-27T10:54:04;0.30;;;0.30;;
7571;SDS011;3827;49.928;8.548;2022-09-27T10:56:42;0.57;;;0.35;;
7571;SDS011;3827;49.928;8.548;2022-09-27T10:59:13;0.60;;;0.32;;
7571;SDS011;3827;49.928;8.548;2022-09-27T11:01:44;0.70;;;0.40;;
7571;SDS011;3827;49.928;8.548;2022-09-27T11:04:18;0.53;;;0.40;;
7571;SDS011;3827;49.928;8.548;2022-09-27T11:06:48;0.80;;;0.45;;
7571;SDS011;3827;49.928;8.548;2022-09-27T11:09:16;0.50;;;0.40;;
7571;SDS011;3827;49.928;8.548;2022-09-27T11:11:48;0.70;;;0.30;;
7571;SDS011;3827;49.928;8.548;2022-09-27T11:14:16;0.60;;;0.40;;
7571;SDS011;3827;49.928;8.548;2022-09-27T11:19:50;1.55;;;0.40;;
7571;SDS011;3827;49.928;8.548;2022-09-27T11:22:35;0.75;;;0.43;;
7571;SDS011;3827;49.928;8.548;2022-09-27T11:25:16;0.50;;;0.50;;
7571;SDS011;3827;49.928;8.548;2022-09-27T11:27:56;0.88;;;0.82;;
7571;SDS011;3827;49.928;8.548;2022-09-27T11:30:32;1.52;;;0.68;;
7571;SDS011;3827;49.928;8.548;2022-09-27T11:33:19;0.63;;;0.57;;
7571;SDS011;3827;49.928;8.548;2022-09-27T11:36:02;1.23;;;0.75;;
7571;SDS011;3827;49.928;8.548;2022-09-27T11:38:36;1.10;;;0.70;;
7571;SDS011;3827;49.928;8.548;2022-09-27T11:41:20;1.00;;;0.70;;
7571;SDS011;3827;49.928;8.548;2022-09-27T11:44:07;0.98;;;0.60;;
7571;SDS011;3827;49.928;8.548;2022-09-27T11:46:59;1.35;;;0.60;;
7571;SDS011;3827;49.928;8.548;2022-09-27T11:49:41;1.67;;;0.60;;
7571;SDS011;3827;49.928;8.548;2022-09-27T11:52:38;1.00;;;0.70;;
7571;SDS011;3827;49.928;8.548;2022-09-27T11:55:19;1.73;;;0.80;;
7571;SDS011;3827;49.928;8.548;2022-09-27T11:57:56;0.87;;;0.60;;
7571;SDS011;3827;49.928;8.548;2022-09-27T12:00:35;1.75;;;0.60;;
7571;SDS011;3827;49.928;8.548;2022-09-27T12:06:12;0.90;;;0.60;;
7571;SDS011;3827;49.928;8.548;2022-09-27T12:08:56;0.70;;;0.60;;
7571;SDS011;3827;49.928;8.548;2022-09-27T12:11:29;0.82;;;0.63;;
7571;SDS011;3827;49.928;8.548;2022-09-27T12:14:01;0.93;;;0.70;;
7571;SDS011;3827;49.928;8.548;2022-09-27T12:16:31;1.60;;;0.80;;
7571;SDS011;3827;49.928;8.548;2022-09-27T12:19:02;0.85;;;0.60;;
7571;SDS011;3827;49.928;8.548;2022-09-27T12:21:29;1.05;;;0.60;;
7571;SDS011;3827;49.928;8.548;2022-09-27T12:23:59;2.03;;;0.60;;
7571;SDS011;3827;49.928;8.548;2022-09-27T12:26:28;1.20;;;0.80;;
7571;SDS011;3827;49.928;8.548;2022-09-27T12:29:02;2.00;;;0.88;;
7571;SDS011;3827;49.928;8.548;2022-09-27T12:31:39;1.48;;;0.88;;
7571;SDS011;3827;49.928;8.548;2022-09-27T12:34:13;2.92;;;1.15;;
7571;SDS011;3827;49.928;8.548;2022-09-27T12:36:45;1.75;;;1.10;;
7571;SDS011;3827;49.928;8.548;2022-09-27T12:39:16;2.73;;;1.00;;
7571;SDS011;3827;49.928;8.548;2022-09-27T12:41:48;1.13;;;0.90;;
7571;SDS011;3827;49.928;8.548;2022-09-27T12:44:25;0.90;;;0.85;;
7571;SDS011;3827;49.928;8.548;2022-09-27T12:46:56;1.38;;;0.80;;
7571;SDS011;3827;49.928;8.548;2022-09-27T12:49:31;1.40;;;1.00;;
7571;SDS011;3827;49.928;8.548;2022-09-27T12:52:08;1.13;;;0.80;;
7571;SDS011;3827;49.928;8.548;2022-09-27T12:54:48;1.60;;;0.80;;
7571;SDS011;3827;49.928;8.548;2022-09-27T12:57:31;1.20;;;0.90;;
7571;SDS011;3827;49.928;8.548;2022-09-27T13:00:09;4.30;;;1.00;;
7571;SDS011;3827;49.928;8.548;2022-09-27T13:03:04;1.27;;;0.82;;
7571;SDS011;3827;49.928;8.548;2022-09-27T13:06:02;1.30;;;0.80;;
7571;SDS011;3827;49.928;8.548;2022-09-27T13:08:58;0.85;;;0.60;;
7571;SDS011;3827;49.928;8.548;2022-09-27T13:11:55;1.47;;;0.70;;
7571;SDS011;3827;49.928;8.548;2022-09-27T13:14:26;0.60;;;0.60;;
7571;SDS011;3827;49.928;8.548;2022-09-27T13:16:57;1.43;;;0.70;;
7571;SDS011;3827;49.928;8.548;2022-09-27T13:19:37;0.82;;;0.55;;
7571;SDS011;3827;49.928;8.548;2022-09-27T13:22:07;0.80;;;0.60;;
7571;SDS011;3827;49.928;8.548;2022-09-27T13:27:40;0.70;;;0.70;;
7571;SDS011;3827;49.928;8.548;2022-09-27T13:33:21;1.38;;;0.45;;
7571;SDS011;3827;49.928;8.548;2022-09-27T13:41:57;0.30;;;0.30;;
7571;SDS011;3827;49.928;8.548;2022-09-27T13:44:56;0.50;;;0.40;;
7571;SDS011;3827;49.928;8.548;2022-09-27T13:47:38;0.40;;;0.40;;
7571;SDS011;3827;49.928;8.548;2022-09-27T13:50:14;0.45;;;0.40;;
7571;SDS011;3827;49.928;8.548;2022-09-27T13:52:54;0.38;;;0.38;;
7571;SDS011;3827;49.928;8.548;2022-09-27T13:55:39;0.35;;;0.35;;
7571;SDS011;3827;49.928;8.548;2022-09-27T13:58:16;0.28;;;0.20;;
7571;SDS011;3827;49.928;8.548;2022-09-27T14:01:02;0.40;;;0.40;;
7571;SDS011;3827;49.928;8.548;2022-09-27T14:03:52;0.38;;;0.38;;
7571;SDS011;3827;49.928;8.548;2022-09-27T14:06:22;0.38;;;0.38;;
7571;SDS011;3827;49.928;8.548;2022-09-27T14:08:57;0.80;;;0.50;;
7571;SDS011;3827;49.928;8.548;2022-09-27T14:11:29;3.80;;;3.50;;
7571;SDS011;3827;49.928;8.548;2022-09-27T14:13:58;0.50;;;0.50;;
7571;SDS011;3827;49.928;8.548;2022-09-27T14:16:29;0.80;;;0.80;;
7571;SDS011;3827;49.928;8.548;2022-09-27T14:18:58;0.80;;;0.70;;
7571;SDS011;3827;49.928;8.548;2022-09-27T14:21:27;0.68;;;0.68;;
7571;SDS011;3827;49.928;8.548;2022-09-27T14:27:02;0.93;;;0.93;;
7571;SDS011;3827;49.928;8.548;2022-09-27T14:29:42;1.40;;;0.73;;
7571;SDS011;3827;49.928;8.548;2022-09-27T14:32:13;0.88;;;0.70;;
7571;SDS011;3827;49.928;8.548;2022-09-27T14:34:41;0.73;;;0.60;;
7571;SDS011;3827;49.928;8.548;2022-09-27T14:37:15;0.70;;;0.70;;
7571;SDS011;3827;49.928;8.548;2022-09-27T14:39:55;0.70;;;0.60;;
7571;SDS011;3827;49.928;8.548;2022-09-27T14:42:24;0.68;;;0.63;;
7571;SDS011;3827;49.928;8.548;2022-09-27T14:44:54;0.85;;;0.85;;
7571;SDS011;3827;49.928;8.548;2022-09-27T14:47:27;1.02;;;0.90;;
7571;SDS011;3827;49.928;8.548;2022-09-27T14:49:55;1.33;;;0.90;;
7571;SDS011;3827;49.928;8.548;2022-09-27T14:52:24;2.00;;;0.85;;
7571;SDS011;3827;49.928;8.548;2022-09-27T14:54:54;2.65;;;0.95;;
7571;SDS011;3827;49.928;8.548;2022-09-27T14:57:22;1.33;;;0.90;;
7571;SDS011;3827;49.928;8.548;2022-09-27T14:59:50;0.80;;;0.80;;
7571;SDS011;3827;49.928;8.548;2022-09-27T15:02:17;0.73;;;0.73;;
7571;SDS011;3827;49.928;8.548;2022-09-27T15:04:49;1.08;;;0.90;;
7571;SDS011;3827;49.928;8.548;2022-09-27T15:07:16;1.20;;;0.95;;
7571;SDS011;3827;49.928;8.548;2022-09-27T15:09:46;2.30;;;2.10;;
7571;SDS011;3827;49.928;8.548;2022-09-27T15:12:17;3.92;;;2.55;;
7571;SDS011;3827;49.928;8.548;2022-09-27T15:14:50;5.72;;;4.10;;
7571;SDS011;3827;49.928;8.548;2022-09-27T15:17:22;1.77;;;1.30;;
7571;SDS011;3827;49.928;8.548;2022-09-27T15:19:56;1.67;;;1.58;;
7571;SDS011;3827;49.928;8.548;2022-09-27T15:22:35;2.10;;;1.90;;
7571;SDS011;3827;49.928;8.548;2022-09-27T15:25:16;1.35;;;1.00;;
7571;SDS011;3827;49.928;8.548;2022-09-27T15:27:46;2.97;;;2.67;;
7571;SDS011;3827;49.928;8.548;2022-09-27T15:30:16;2.85;;;2.65;;
7571;SDS011;3827;49.928;8.548;2022-09-27T15:32:52;2.38;;;2.17;;
7571;SDS011;3827;49.928;8.548;2022-09-27T15:35:23;2.73;;;2.43;;
7571;SDS011;3827;49.928;8.548;2022-09-27T15:38:08;1.50;;;1.40;;
7571;SDS011;3827;49.928;8.548;2022-09-27T15:40:57;3.13;;;2.92;;
7571;SDS011;3827;49.928;8.548;2022-09-27T15:43:30;2.08;;;1.98;;
7571;SDS011;3827;49.928;8.548;2022-09-27T15:46:00;1.60;;;1.50;;
7571;SDS011;3827;49.928;8.548;2022-09-27T15:48:29;1.40;;;1.10;;
7571;SDS011;3827;49.928;8.548;2022-09-27T15:50:59;1.08;;;1.00;;
7571;SDS011;3827;49.928;8.548;2022-09-27T15:53:40;0.80;;;0.80;;
7571;SDS011;3827;49.928;8.548;2022-09-27T15:56:12;1.90;;;0.90;;
7571;SDS011;3827;49.928;8.548;2022-09-27T15:58:40;1.92;;;1.10;;
7571;SDS011;3827;49.928;8.548;2022-09-27T16:01:18;1.30;;;0.80;;
7571;SDS011;3827;49.928;8.548;2022-09-27T16:03:46;1.20;;;1.10;;
7571;SDS011;3827;49.928;8.548;2022-09-27T16:06:15;1.08;;;0.98;;
7571;SDS011;3827;49.928;8.548;2022-09-27T16:08:43;2.45;;;1.30;;
7571;SDS011;3827;49.928;8.548;2022-09-27T16:11:11;1.33;;;1.10;;
7571;SDS011;3827;49.928;8.548;2022-09-27T16:13:41;1.27;;;1.17;;
7571;SDS011;3827;49.928;8.548;2022-09-27T16:16:12;1.90;;;1.25;;